Time,TemperatureF,DewpointF,PressureIn,WindDirection,WindDirectionDegrees,WindSpeedMPH,WindSpeedGustMPH,Humidity,HourlyPrecipIn,Conditions,Clouds,dailyrainin,SoftwareType,DateUTC
2013-06-23 00:04:00,67.6,63.6,29.98,West,270,0.0,0.0,87,0.58,,,0.15,Wunderground v.1.15,2013-06-23 05:04:00,
2013-06-23 00:10:00,67.4,63.4,29.98,NW,313,2.0,2.0,87,0.40,,,0.22,Wunderground v.1.15,2013-06-23 05:10:00,
2013-06-23 00:15:00,67.1,63.4,29.98,WNW,282,2.0,6.0,88,0.17,,,0.23,Wunderground v.1.15,2013-06-23 05:15:00,
2013-06-23 00:20:00,66.9,63.2,29.98,NW,311,1.0,1.0,88,0.08,,,0.23,Wunderground v.1.15,2013-06-23 05:20:00,
2013-06-23 00:26:00,66.9,63.2,29.98,West,281,0.0,1.0,88,0.04,,,0.23,Wunderground v.1.15,2013-06-23 05:26:00,
2013-06-23 00:31:00,66.8,63.1,30.01,NW,322,0.0,0.0,88,1.64,,,0.29,Wunderground v.1.15,2013-06-23 05:31:00,
2013-06-23 00:36:00,66.6,63.3,30.01,West,275,1.0,2.0,89,1.60,,,0.41,Wunderground v.1.15,2013-06-23 05:36:00,
2013-06-23 00:42:00,66.4,63.1,30.01,NW,323,1.0,1.0,89,0.32,,,0.51,Wunderground v.1.15,2013-06-23 05:42:00,
2013-06-23 00:48:00,66.4,63.1,30.00,West,267,0.0,4.0,89,0.20,,,0.54,Wunderground v.1.15,2013-06-23 05:48:00,
2013-06-23 00:53:00,66.3,63.0,30.00,WSW,254,0.0,0.0,89,0.09,,,0.54,Wunderground v.1.15,2013-06-23 05:53:00,
2013-06-23 00:59:00,66.3,63.0,30.00,WSW,254,0.0,0.0,89,0.05,,,0.54,Wunderground v.1.15,2013-06-23 05:59:00,
2013-06-23 01:04:00,66.3,63.0,30.00,WSW,253,0.0,0.0,89,0.00,,,0.54,Wunderground v.1.15,2013-06-23 06:04:00,
2013-06-23 01:10:00,66.1,62.8,30.00,WSW,254,0.0,0.0,89,0.00,,,0.55,Wunderground v.1.15,2013-06-23 06:10:00,
2013-06-23 01:17:00,66.0,63.0,30.00,WSW,254,0.0,0.0,90,0.09,,,0.56,Wunderground v.1.15,2013-06-23 06:17:00,
2013-06-23 01:22:00,66.0,63.0,30.00,WSW,254,0.0,0.0,90,0.07,,,0.56,Wunderground v.1.15,2013-06-23 06:22:00,
2013-06-23 01:27:00,65.8,62.8,30.00,WSW,254,0.0,0.0,90,0.05,,,0.56,Wunderground v.1.15,2013-06-23 06:27:00,
2013-06-23 01:33:00,65.8,62.8,29.98,WSW,254,0.0,0.0,90,0.00,,,0.56,Wunderground v.1.15,2013-06-23 06:33:00,
2013-06-23 01:38:00,65.6,62.6,29.98,WSW,254,0.0,0.0,90,0.00,,,0.56,Wunderground v.1.15,2013-06-23 06:38:00,
2013-06-23 01:44:00,65.5,62.5,29.97,WSW,254,0.0,0.0,90,0.00,,,0.56,Wunderground v.1.15,2013-06-23 06:44:00,
2013-06-23 01:49:00,65.5,62.5,29.97,WSW,254,0.0,0.0,90,0.00,,,0.56,Wunderground v.1.15,2013-06-23 06:49:00,
2013-06-23 01:55:00,65.3,62.3,29.97,WSW,254,0.0,0.0,90,0.00,,,0.56,Wunderground v.1.15,2013-06-23 06:55:00,
2013-06-23 02:00:00,65.3,62.3,29.97,WSW,254,0.0,0.0,90,0.00,,,0.56,Wunderground v.1.15,2013-06-23 07:00:00,
2013-06-23 02:05:00,65.2,62.2,29.97,West,275,0.0,0.0,90,0.00,,,0.56,Wunderground v.1.15,2013-06-23 07:05:00,
2013-06-23 02:10:00,65.2,62.2,29.97,West,275,0.0,0.0,90,0.00,,,0.56,Wunderground v.1.15,2013-06-23 07:10:00,
2013-06-23 02:15:00,65.0,62.0,29.96,West,275,0.0,0.0,90,0.00,,,0.56,Wunderground v.1.15,2013-06-23 07:15:00,
2013-06-23 02:21:00,65.0,62.0,29.96,West,275,0.0,0.0,90,0.00,,,0.56,Wunderground v.1.15,2013-06-23 07:21:00,
2013-06-23 02:26:00,64.8,61.8,29.96,West,275,0.0,0.0,90,0.00,,,0.56,Wunderground v.1.15,2013-06-23 07:26:00,
2013-06-23 02:31:00,64.7,61.7,29.95,West,275,0.0,0.0,90,0.00,,,0.56,Wunderground v.1.15,2013-06-23 07:31:00,
2013-06-23 02:36:00,64.7,61.7,29.95,West,275,0.0,0.0,90,0.00,,,0.56,Wunderground v.1.15,2013-06-23 07:36:00,
2013-06-23 02:42:00,64.5,61.5,29.95,West,275,0.0,0.0,90,0.00,,,0.56,Wunderground v.1.15,2013-06-23 07:42:00,
2013-06-23 02:47:00,64.3,61.3,29.93,West,275,0.0,0.0,90,0.00,,,0.56,Wunderground v.1.15,2013-06-23 07:47:00,
2013-06-23 02:53:00,64.2,61.2,29.93,West,275,0.0,0.0,90,0.00,,,0.56,Wunderground v.1.15,2013-06-23 07:53:00,
2013-06-23 02:59:00,64.2,61.5,29.92,West,275,0.0,0.0,91,0.00,,,0.56,Wunderground v.1.15,2013-06-23 07:59:00,
2013-06-23 03:04:00,64.0,61.3,29.92,SSW,208,0.0,0.0,91,0.00,,,0.56,Wunderground v.1.15,2013-06-23 08:04:00,
2013-06-23 03:10:00,64.0,61.3,29.92,SSW,206,0.0,0.0,91,0.00,,,0.56,Wunderground v.1.15,2013-06-23 08:10:00,
2013-06-23 03:17:00,63.9,61.2,29.91,SSW,206,0.0,0.0,91,0.00,,,0.56,Wunderground v.1.15,2013-06-23 08:17:00,
2013-06-23 03:22:00,63.9,61.2,29.91,SSW,206,0.0,0.0,91,0.00,,,0.56,Wunderground v.1.15,2013-06-23 08:22:00,
2013-06-23 03:27:00,63.9,61.2,29.91,SSW,208,0.0,0.0,91,0.00,,,0.56,Wunderground v.1.15,2013-06-23 08:27:00,
2013-06-23 03:33:00,63.9,61.2,29.91,SSW,208,0.0,0.0,91,0.00,,,0.56,Wunderground v.1.15,2013-06-23 08:33:00,
2013-06-23 03:38:00,63.7,61.0,29.91,SSW,208,0.0,0.0,91,0.00,,,0.56,Wunderground v.1.15,2013-06-23 08:38:00,
2013-06-23 03:43:00,63.7,61.0,29.92,SSW,208,0.0,0.0,91,0.00,,,0.56,Wunderground v.1.15,2013-06-23 08:43:00,
2013-06-23 03:49:00,63.7,61.0,29.92,SSW,208,0.0,0.0,91,0.00,,,0.56,Wunderground v.1.15,2013-06-23 08:49:00,
2013-06-23 03:55:00,63.5,60.8,29.92,SSW,208,0.0,0.0,91,0.00,,,0.56,Wunderground v.1.15,2013-06-23 08:55:00,
2013-06-23 04:01:00,63.5,60.8,29.93,ESE,102,0.0,0.0,91,0.00,,,0.56,Wunderground v.1.15,2013-06-23 09:01:00,
2013-06-23 04:07:00,63.5,60.8,29.93,NW,315,0.0,0.0,91,0.00,,,0.56,Wunderground v.1.15,2013-06-23 09:07:00,
2013-06-23 04:13:00,63.5,61.1,29.94,NW,308,0.0,0.0,92,0.00,,,0.56,Wunderground v.1.15,2013-06-23 09:13:00,
2013-06-23 04:19:00,63.4,61.0,29.94,NW,308,0.0,0.0,92,0.00,,,0.56,Wunderground v.1.15,2013-06-23 09:19:00,
2013-06-23 04:24:00,63.4,61.0,29.94,NW,308,0.0,0.0,92,0.00,,,0.56,Wunderground v.1.15,2013-06-23 09:24:00,
2013-06-23 04:30:00,63.4,61.0,29.94,NW,308,0.0,0.0,92,0.00,,,0.56,Wunderground v.1.15,2013-06-23 09:30:00,
2013-06-23 04:35:00,63.4,61.0,29.94,NW,308,0.0,0.0,92,0.00,,,0.56,Wunderground v.1.15,2013-06-23 09:35:00,
2013-06-23 04:41:00,63.2,60.8,29.94,NW,308,0.0,0.0,92,0.00,,,0.56,Wunderground v.1.15,2013-06-23 09:41:00,
2013-06-23 04:46:00,63.2,60.8,29.95,NW,308,0.0,0.0,92,0.00,,,0.56,Wunderground v.1.15,2013-06-23 09:46:00,
2013-06-23 04:52:00,63.2,60.8,29.95,NW,308,0.0,0.0,92,0.00,,,0.56,Wunderground v.1.15,2013-06-23 09:52:00,
2013-06-23 04:57:00,63.2,60.8,29.95,NW,308,0.0,0.0,92,0.00,,,0.56,Wunderground v.1.15,2013-06-23 09:57:00,
2013-06-23 05:03:00,63.2,60.8,29.94,NW,308,0.0,0.0,92,0.00,,,0.56,Wunderground v.1.15,2013-06-23 10:03:00,
2013-06-23 05:09:00,63.1,60.7,29.94,NW,308,0.0,0.0,92,0.00,,,0.56,Wunderground v.1.15,2013-06-23 10:09:00,
2013-06-23 05:14:00,63.1,60.7,29.93,NW,308,0.0,0.0,92,0.00,,,0.56,Wunderground v.1.15,2013-06-23 10:14:00,
2013-06-23 05:20:00,63.1,60.7,29.93,NW,308,0.0,0.0,92,0.00,,,0.56,Wunderground v.1.15,2013-06-23 10:20:00,
2013-06-23 05:25:00,63.1,60.7,29.93,NW,308,0.0,0.0,92,0.00,,,0.56,Wunderground v.1.15,2013-06-23 10:25:00,
2013-06-23 05:31:00,63.1,60.7,29.91,NW,308,0.0,0.0,92,0.00,,,0.56,Wunderground v.1.15,2013-06-23 10:31:00,
2013-06-23 05:36:00,63.1,60.7,29.91,NW,308,0.0,0.0,92,0.00,,,0.56,Wunderground v.1.15,2013-06-23 10:36:00,
2013-06-23 05:42:00,63.1,60.7,29.91,NW,308,0.0,0.0,92,0.00,,,0.56,Wunderground v.1.15,2013-06-23 10:42:00,
2013-06-23 05:47:00,63.1,60.7,29.91,NW,308,0.0,0.0,92,0.00,,,0.56,Wunderground v.1.15,2013-06-23 10:47:00,
2013-06-23 05:52:00,63.1,60.7,29.91,NW,308,0.0,0.0,92,0.00,,,0.56,Wunderground v.1.15,2013-06-23 10:52:00,
2013-06-23 05:58:00,63.1,60.7,29.89,NW,308,0.0,0.0,92,0.00,,,0.56,Wunderground v.1.15,2013-06-23 10:58:00,
2013-06-23 06:03:00,63.1,60.7,29.89,NW,308,0.0,0.0,92,0.00,,,0.56,Wunderground v.1.15,2013-06-23 11:03:00,
2013-06-23 06:08:00,63.1,60.7,29.89,NE,45,0.0,0.0,92,0.00,,,0.56,Wunderground v.1.15,2013-06-23 11:08:00,
2013-06-23 06:14:00,63.1,60.7,29.88,NE,44,0.0,0.0,92,0.00,,,0.56,Wunderground v.1.15,2013-06-23 11:14:00,
2013-06-23 06:19:00,63.1,60.7,29.88,SE,141,0.0,0.0,92,0.00,,,0.56,Wunderground v.1.15,2013-06-23 11:19:00,
2013-06-23 06:24:00,63.2,60.8,29.88,SE,134,0.0,0.0,92,0.00,,,0.56,Wunderground v.1.15,2013-06-23 11:24:00,
2013-06-23 06:30:00,63.2,60.8,29.87,SE,126,0.0,0.0,92,0.00,,,0.56,Wunderground v.1.15,2013-06-23 11:30:00,
2013-06-23 06:35:00,63.4,61.0,29.87,ESE,116,0.0,0.0,92,0.00,,,0.56,Wunderground v.1.15,2013-06-23 11:35:00,
2013-06-23 06:41:00,63.5,61.1,29.87,ENE,76,0.0,2.0,92,0.00,,,0.56,Wunderground v.1.15,2013-06-23 11:41:00,
2013-06-23 06:46:00,63.7,61.3,29.86,SE,140,1.0,4.0,92,0.00,,,0.56,Wunderground v.1.15,2013-06-23 11:46:00,
2013-06-23 06:52:00,63.9,61.5,29.86,SE,128,1.0,1.0,92,0.00,,,0.56,Wunderground v.1.15,2013-06-23 11:52:00,
2013-06-23 06:58:00,64.0,61.6,29.86,SE,131,0.0,6.0,92,0.00,,,0.56,Wunderground v.1.15,2013-06-23 11:58:00,
2013-06-23 07:04:00,64.3,62.2,29.86,ESE,119,1.0,2.0,93,0.00,,,0.56,Wunderground v.1.15,2013-06-23 12:04:00,
2013-06-23 07:10:00,64.5,62.4,29.86,SE,128,1.0,1.0,93,0.00,,,0.56,Wunderground v.1.15,2013-06-23 12:10:00,
2013-06-23 07:15:00,64.8,62.7,29.87,SE,137,1.0,4.0,93,0.00,,,0.56,Wunderground v.1.15,2013-06-23 12:15:00,
2013-06-23 07:20:00,65.2,63.1,29.87,East,83,2.0,2.0,93,0.00,,,0.56,Wunderground v.1.15,2013-06-23 12:20:00,
2013-06-23 07:25:00,65.5,63.4,29.87,SE,130,2.0,8.0,93,0.00,,,0.56,Wunderground v.1.15,2013-06-23 12:25:00,
2013-06-23 07:32:00,65.8,63.7,29.87,ESE,110,2.0,2.0,93,0.00,,,0.56,Wunderground v.1.15,2013-06-23 12:32:00,
2013-06-23 07:37:00,66.1,64.0,29.87,SE,136,2.0,5.0,93,0.00,,,0.56,Wunderground v.1.15,2013-06-23 12:37:00,
2013-06-23 07:43:00,66.3,64.2,29.87,SE,128,1.0,1.0,93,0.00,,,0.56,Wunderground v.1.15,2013-06-23 12:43:00,
2013-06-23 07:48:00,66.6,64.5,29.87,ESE,112,1.0,6.0,93,0.00,,,0.56,Wunderground v.1.15,2013-06-23 12:48:00,
2013-06-23 07:54:00,66.9,64.8,29.87,SSE,148,1.0,2.0,93,0.00,,,0.56,Wunderground v.1.15,2013-06-23 12:54:00,
2013-06-23 07:59:00,67.1,65.0,29.89,SE,133,1.0,2.0,93,0.00,,,0.56,Wunderground v.1.15,2013-06-23 12:59:00,
2013-06-23 08:05:00,67.3,65.2,29.89,North,10,1.0,7.0,93,0.00,,,0.56,Wunderground v.1.15,2013-06-23 13:05:00,
2013-06-23 08:10:00,67.4,65.3,29.89,South,182,1.0,1.0,93,0.00,,,0.56,Wunderground v.1.15,2013-06-23 13:10:00,
2013-06-23 08:15:00,67.6,65.5,29.89,East,88,1.0,6.0,93,0.00,,,0.56,Wunderground v.1.15,2013-06-23 13:15:00,
2013-06-23 08:21:00,67.8,65.7,29.89,SSW,210,0.0,0.0,93,0.00,,,0.56,Wunderground v.1.15,2013-06-23 13:21:00,
2013-06-23 08:26:00,67.9,65.8,29.89,SW,227,0.0,0.0,93,0.00,,,0.56,Wunderground v.1.15,2013-06-23 13:26:00,
2013-06-23 08:31:00,68.3,66.2,29.90,ESE,113,0.0,0.0,93,0.00,,,0.56,Wunderground v.1.15,2013-06-23 13:31:00,
2013-06-23 08:37:00,68.6,66.5,29.90,SE,138,0.0,0.0,93,0.00,,,0.56,Wunderground v.1.15,2013-06-23 13:37:00,
2013-06-23 08:42:00,68.9,66.8,29.90,SSE,161,0.0,5.0,93,0.00,,,0.56,Wunderground v.1.15,2013-06-23 13:42:00,
2013-06-23 08:48:00,69.1,67.0,29.90,ENE,61,1.0,5.0,93,0.00,,,0.56,Wunderground v.1.15,2013-06-23 13:48:00,
2013-06-23 08:53:00,69.3,67.2,29.90,South,184,1.0,2.0,93,0.00,,,0.56,Wunderground v.1.15,2013-06-23 13:53:00,
2013-06-23 08:58:00,69.6,67.5,29.91,SSE,161,1.0,6.0,93,0.00,,,0.56,Wunderground v.1.15,2013-06-23 13:58:00,
2013-06-23 09:03:00,69.9,67.8,29.91,SSW,193,1.0,1.0,93,0.00,,,0.56,Wunderground v.1.15,2013-06-23 14:03:00,
2013-06-23 09:09:00,70.1,68.0,29.91,SSW,199,1.0,2.0,93,0.00,,,0.56,Wunderground v.1.15,2013-06-23 14:09:00,
2013-06-23 09:14:00,70.4,68.3,29.92,SW,220,1.0,1.0,93,0.00,,,0.56,Wunderground v.1.15,2013-06-23 14:14:00,
2013-06-23 09:20:00,70.4,68.3,29.92,SE,134,1.0,1.0,93,0.00,,,0.56,Wunderground v.1.15,2013-06-23 14:20:00,
2013-06-23 09:25:00,71.1,68.7,29.92,SSE,154,0.0,1.0,92,0.00,,,0.56,Wunderground v.1.15,2013-06-23 14:25:00,
2013-06-23 09:31:00,71.3,68.9,29.91,SE,136,0.0,0.0,92,0.00,,,0.56,Wunderground v.1.15,2013-06-23 14:31:00,
2013-06-23 09:36:00,71.6,69.2,29.91,East,99,2.0,6.0,92,0.00,,,0.56,Wunderground v.1.15,2013-06-23 14:36:00,
2013-06-23 09:41:00,71.6,69.2,29.91,South,182,1.0,2.0,92,0.00,,,0.56,Wunderground v.1.15,2013-06-23 14:41:00,
2013-06-23 09:46:00,71.8,69.3,29.91,ESE,123,1.0,6.0,92,0.00,,,0.56,Wunderground v.1.15,2013-06-23 14:46:00,
2013-06-23 09:52:00,72.0,69.2,29.91,East,79,1.0,1.0,91,0.00,,,0.56,Wunderground v.1.15,2013-06-23 14:52:00,
2013-06-23 09:57:00,72.5,69.7,29.91,WNW,285,0.0,1.0,91,0.00,,,0.56,Wunderground v.1.15,2013-06-23 14:57:00,
2013-06-23 10:06:00,73.0,69.6,29.91,ESE,109,0.0,6.0,89,0.00,,,0.56,Wunderground v.1.15,2013-06-23 15:06:00,
2013-06-23 10:12:00,73.7,69.9,29.91,West,260,1.0,1.0,88,0.00,,,0.56,Wunderground v.1.15,2013-06-23 15:12:00,
2013-06-23 10:17:00,73.9,69.4,29.91,ENE,76,1.0,6.0,86,0.00,,,0.56,Wunderground v.1.15,2013-06-23 15:17:00,
2013-06-23 10:23:00,74.6,69.4,29.91,SW,223,1.0,6.0,84,0.00,,,0.56,Wunderground v.1.15,2013-06-23 15:23:00,
2013-06-23 10:29:00,75.1,68.9,29.91,East,93,1.0,6.0,81,0.00,,,0.56,Wunderground v.1.15,2013-06-23 15:29:00,
2013-06-23 10:34:00,75.6,68.3,29.91,ESE,120,1.0,8.0,78,0.00,,,0.56,Wunderground v.1.15,2013-06-23 15:34:00,
2013-06-23 10:40:00,76.3,68.2,29.91,ENE,71,2.0,2.0,76,0.00,,,0.56,Wunderground v.1.15,2013-06-23 15:40:00,
2013-06-23 10:45:00,77.0,68.5,29.91,ESE,113,1.0,3.0,75,0.00,,,0.56,Wunderground v.1.15,2013-06-23 15:45:00,
2013-06-23 10:51:00,77.7,68.4,29.91,SW,222,1.0,5.0,73,0.00,,,0.56,Wunderground v.1.15,2013-06-23 15:51:00,
2013-06-23 10:56:00,78.1,68.3,29.91,South,186,0.0,5.0,72,0.00,,,0.56,Wunderground v.1.15,2013-06-23 15:56:00,
2013-06-23 11:01:00,78.6,68.8,29.91,SW,222,1.0,1.0,72,0.00,,,0.56,Wunderground v.1.15,2013-06-23 16:01:00,
2013-06-23 11:07:00,79.2,69.0,29.91,WSW,254,1.0,10.0,71,0.00,,,0.56,Wunderground v.1.15,2013-06-23 16:07:00,
2013-06-23 11:13:00,79.8,69.6,29.91,ESE,114,1.0,1.0,71,0.00,,,0.56,Wunderground v.1.15,2013-06-23 16:13:00,
2013-06-23 11:18:00,80.3,69.6,29.91,SW,227,1.0,3.0,70,0.00,,,0.56,Wunderground v.1.15,2013-06-23 16:18:00,
2013-06-23 11:23:00,80.7,69.6,29.91,SSE,158,2.0,4.0,69,0.00,,,0.56,Wunderground v.1.15,2013-06-23 16:23:00,
2013-06-23 11:29:00,81.1,69.1,29.90,SE,134,2.0,7.0,67,0.00,,,0.56,Wunderground v.1.15,2013-06-23 16:29:00,
2013-06-23 11:35:00,81.6,70.4,29.90,South,186,1.0,3.0,69,0.00,,,0.56,Wunderground v.1.15,2013-06-23 16:35:00,
2013-06-23 11:41:00,81.8,69.8,29.90,ESE,106,1.0,2.0,67,0.00,,,0.56,Wunderground v.1.15,2013-06-23 16:41:00,
2013-06-23 11:46:00,81.6,69.1,29.90,ESE,110,1.0,3.0,66,0.00,,,0.56,Wunderground v.1.15,2013-06-23 16:46:00,
2013-06-23 11:52:00,81.8,69.8,29.90,ESE,119,1.0,6.0,67,0.00,,,0.56,Wunderground v.1.15,2013-06-23 16:52:00,
2013-06-23 11:57:00,82.2,70.6,29.90,SW,236,1.0,10.0,68,0.00,,,0.56,Wunderground v.1.15,2013-06-23 16:57:00,
2013-06-23 11:58:00,82.2,70.6,29.89,ESE,121,1.0,10.0,68,0.00,,,0.56,Wunderground v.1.15,2013-06-23 16:58:00,
2013-06-23 12:00:00,82.2,70.1,29.89,SSE,150,2.0,2.0,67,0.00,,,0.56,Wunderground v.1.15,2013-06-23 17:00:00,
2013-06-23 12:01:00,82.4,70.3,29.89,SE,138,1.0,2.0,67,0.00,,,0.56,Wunderground v.1.15,2013-06-23 17:01:00,
2013-06-23 12:06:00,82.8,71.2,29.89,East,93,2.0,6.0,68,0.00,,,0.56,Wunderground v.1.15,2013-06-23 17:06:00,
2013-06-23 12:12:00,83.2,71.1,29.89,East,97,2.0,3.0,67,0.00,,,0.56,Wunderground v.1.15,2013-06-23 17:12:00,
2013-06-23 12:17:00,83.4,71.3,29.89,SE,124,1.0,3.0,67,0.00,,,0.56,Wunderground v.1.15,2013-06-23 17:17:00,
2013-06-23 12:23:00,84.0,71.9,29.89,SSE,168,1.0,1.0,67,0.00,,,0.56,Wunderground v.1.15,2013-06-23 17:23:00,
2013-06-23 12:28:00,84.1,71.5,29.89,South,175,1.0,4.0,66,0.00,,,0.56,Wunderground v.1.15,2013-06-23 17:28:00,
2013-06-23 12:34:00,84.3,71.2,29.89,SW,216,1.0,2.0,65,0.00,,,0.56,Wunderground v.1.15,2013-06-23 17:34:00,
2013-06-23 12:39:00,84.5,71.0,29.89,SW,224,1.0,10.0,64,0.00,,,0.56,Wunderground v.1.15,2013-06-23 17:39:00,
2013-06-23 12:45:00,84.5,71.0,29.88,SSE,158,2.0,5.0,64,0.00,,,0.56,Wunderground v.1.15,2013-06-23 17:45:00,
2013-06-23 12:51:00,84.5,72.3,29.88,SE,133,2.0,2.0,67,0.00,,,0.56,Wunderground v.1.15,2013-06-23 17:51:00,
2013-06-23 12:56:00,84.7,71.6,29.88,East,79,1.0,2.0,65,0.00,,,0.56,Wunderground v.1.15,2013-06-23 17:56:00,
2013-06-23 13:01:00,84.9,71.8,29.88,ESE,107,0.0,2.0,65,0.00,,,0.56,Wunderground v.1.15,2013-06-23 18:01:00,
2013-06-23 13:07:00,84.9,71.4,29.88,SW,226,0.0,2.0,64,0.00,,,0.56,Wunderground v.1.15,2013-06-23 18:07:00,
2013-06-23 13:12:00,84.9,71.4,29.88,SE,128,0.0,0.0,64,0.00,,,0.56,Wunderground v.1.15,2013-06-23 18:12:00,
2013-06-23 13:17:00,84.7,71.2,29.89,SW,224,1.0,1.0,64,0.00,,,0.56,Wunderground v.1.15,2013-06-23 18:17:00,
2013-06-23 13:23:00,84.3,70.8,29.89,SSW,202,1.0,3.0,64,0.00,,,0.56,Wunderground v.1.15,2013-06-23 18:23:00,
2013-06-23 13:28:00,84.0,71.4,29.89,SSW,193,1.0,3.0,66,0.00,,,0.56,Wunderground v.1.15,2013-06-23 18:28:00,
2013-06-23 13:34:00,83.8,71.2,29.89,WSW,251,0.0,2.0,66,0.00,,,0.56,Wunderground v.1.15,2013-06-23 18:34:00,
2013-06-23 13:40:00,83.2,71.1,29.89,ESE,107,0.0,0.0,67,0.00,,,0.56,Wunderground v.1.15,2013-06-23 18:40:00,
2013-06-23 13:45:00,83.0,70.9,29.88,SSW,202,0.0,6.0,67,0.00,,,0.56,Wunderground v.1.15,2013-06-23 18:45:00,
2013-06-23 13:51:00,83.0,70.9,29.88,SW,230,1.0,1.0,67,0.00,,,0.56,Wunderground v.1.15,2013-06-23 18:51:00,
2013-06-23 13:57:00,83.4,72.2,29.88,SSW,212,0.0,1.0,69,0.00,,,0.56,Wunderground v.1.15,2013-06-23 18:57:00,
2013-06-23 14:03:00,83.6,71.0,29.87,SSE,161,0.0,0.0,66,0.00,,,0.56,Wunderground v.1.15,2013-06-23 19:03:00,
2013-06-23 14:09:00,83.8,71.2,29.87,SW,217,0.0,2.0,66,0.00,,,0.56,Wunderground v.1.15,2013-06-23 19:09:00,
2013-06-23 14:15:00,84.1,72.0,29.86,West,278,0.0,0.0,67,0.00,,,0.56,Wunderground v.1.15,2013-06-23 19:15:00,
2013-06-23 14:20:00,84.3,71.2,29.86,East,83,0.0,0.0,65,0.00,,,0.56,Wunderground v.1.15,2013-06-23 19:20:00,
2013-06-23 14:26:00,84.3,71.7,29.86,ESE,103,0.0,1.0,66,0.00,,,0.56,Wunderground v.1.15,2013-06-23 19:26:00,
2013-06-23 14:32:00,84.3,71.2,29.86,SSE,164,0.0,0.0,65,0.00,,,0.56,Wunderground v.1.15,2013-06-23 19:32:00,
2013-06-23 14:37:00,84.5,72.3,29.86,SSW,212,1.0,5.0,67,0.00,,,0.56,Wunderground v.1.15,2013-06-23 19:37:00,
2013-06-23 14:43:00,84.7,71.6,29.83,ESE,104,1.0,1.0,65,0.00,,,0.56,Wunderground v.1.15,2013-06-23 19:43:00,
2013-06-23 14:49:00,85.1,72.0,29.83,SSW,203,0.0,1.0,65,0.00,,,0.56,Wunderground v.1.15,2013-06-23 19:49:00,
2013-06-23 14:55:00,85.7,72.1,29.83,SSE,147,1.0,7.0,64,0.00,,,0.56,Wunderground v.1.15,2013-06-23 19:55:00,
2013-06-23 15:00:00,85.7,72.1,29.81,ESE,119,2.0,5.0,64,0.00,,,0.56,Wunderground v.1.15,2013-06-23 20:00:00,
2013-06-23 15:05:00,85.5,71.9,29.81,SE,141,3.0,5.0,64,0.00,,,0.56,Wunderground v.1.15,2013-06-23 20:05:00,
2013-06-23 15:11:00,85.1,71.1,29.81,SE,138,1.0,2.0,63,0.00,,,0.56,Wunderground v.1.15,2013-06-23 20:11:00,
2013-06-23 15:17:00,84.7,70.7,29.81,SE,131,1.0,2.0,63,0.00,,,0.56,Wunderground v.1.15,2013-06-23 20:17:00,
2013-06-23 15:22:00,84.5,70.5,29.81,ESE,120,2.0,10.0,63,0.00,,,0.56,Wunderground v.1.15,2013-06-23 20:22:00,
2013-06-23 15:27:00,84.1,70.1,29.81,SE,131,2.0,10.0,63,0.00,,,0.56,Wunderground v.1.15,2013-06-23 20:27:00,
2013-06-23 15:32:00,83.8,70.8,29.82,SE,140,1.0,7.0,65,0.00,,,0.56,Wunderground v.1.15,2013-06-23 20:32:00,
2013-06-23 15:38:00,83.2,69.8,29.82,SSE,158,1.0,7.0,64,0.00,,,0.56,Wunderground v.1.15,2013-06-23 20:38:00,
2013-06-23 15:43:00,82.6,69.2,29.82,SSW,210,1.0,7.0,64,0.00,,,0.56,Wunderground v.1.15,2013-06-23 20:43:00,
2013-06-23 15:49:00,82.2,68.8,29.82,SE,127,1.0,7.0,64,0.00,,,0.56,Wunderground v.1.15,2013-06-23 20:49:00,
2013-06-23 15:54:00,81.8,68.4,29.82,SE,133,1.0,1.0,64,0.00,,,0.56,Wunderground v.1.15,2013-06-23 20:54:00,
2013-06-23 16:00:00,81.2,67.9,29.83,ESE,119,0.0,0.0,64,0.00,,,0.56,Wunderground v.1.15,2013-06-23 21:00:00,
2013-06-23 16:05:00,81.1,67.8,29.83,ESE,117,0.0,1.0,64,0.00,,,0.56,Wunderground v.1.15,2013-06-23 21:05:00,
2013-06-23 16:11:00,80.7,67.8,29.83,South,191,0.0,0.0,65,0.00,,,0.56,Wunderground v.1.15,2013-06-23 21:11:00,
2013-06-23 16:17:00,80.5,68.1,29.83,SE,141,1.0,2.0,66,0.00,,,0.56,Wunderground v.1.15,2013-06-23 21:17:00,
2013-06-23 16:23:00,80.1,68.2,29.83,SE,131,1.0,1.0,67,0.00,,,0.56,Wunderground v.1.15,2013-06-23 21:23:00,
2013-06-23 16:28:00,79.9,68.0,29.82,ESE,112,1.0,5.0,67,0.00,,,0.56,Wunderground v.1.15,2013-06-23 21:28:00,
2013-06-23 16:34:00,79.8,68.3,29.82,SE,143,1.0,1.0,68,0.00,,,0.56,Wunderground v.1.15,2013-06-23 21:34:00,
2013-06-23 16:40:00,79.6,68.5,29.82,ENE,58,0.0,0.0,69,0.00,,,0.56,Wunderground v.1.15,2013-06-23 21:40:00,
2013-06-23 16:45:00,79.4,68.3,29.83,SSE,164,0.0,2.0,69,0.00,,,0.56,Wunderground v.1.15,2013-06-23 21:45:00,
2013-06-23 16:50:00,79.0,68.0,29.83,SE,128,1.0,5.0,69,0.00,,,0.56,Wunderground v.1.15,2013-06-23 21:50:00,
2013-06-23 16:55:00,79.0,67.5,29.83,WSW,241,1.0,5.0,68,0.00,,,0.56,Wunderground v.1.15,2013-06-23 21:55:00,
2013-06-23 17:02:00,78.5,65.8,29.84,SSE,155,0.0,0.0,65,0.00,,,0.56,Wunderground v.1.15,2013-06-23 22:02:00,
2013-06-23 17:07:00,77.9,64.7,29.84,ESE,113,1.0,6.0,64,0.00,,,0.56,Wunderground v.1.15,2013-06-23 22:07:00,
2013-06-23 17:13:00,77.7,65.0,29.84,SE,133,2.0,5.0,65,0.00,,,0.56,Wunderground v.1.15,2013-06-23 22:13:00,
2013-06-23 17:19:00,77.4,65.1,29.84,SE,127,0.0,5.0,66,0.00,,,0.56,Wunderground v.1.15,2013-06-23 22:19:00,
2013-06-23 17:25:00,77.2,65.4,29.84,South,188,1.0,3.0,67,0.00,,,0.56,Wunderground v.1.15,2013-06-23 22:25:00,
2013-06-23 17:30:00,77.0,65.2,29.85,South,178,0.0,0.0,67,0.00,,,0.56,Wunderground v.1.15,2013-06-23 22:30:00,
2013-06-23 17:36:00,76.8,65.4,29.85,SE,128,0.0,0.0,68,0.00,,,0.56,Wunderground v.1.15,2013-06-23 22:36:00,
2013-06-23 17:41:00,76.7,65.8,29.85,South,186,0.0,0.0,69,0.00,,,0.56,Wunderground v.1.15,2013-06-23 22:41:00,
2013-06-23 17:46:00,76.5,66.0,29.86,SE,127,0.0,0.0,70,0.00,,,0.56,Wunderground v.1.15,2013-06-23 22:46:00,
2013-06-23 17:52:00,76.3,65.8,29.86,SE,124,0.0,0.0,70,0.00,,,0.56,Wunderground v.1.15,2013-06-23 22:52:00,
2013-06-23 17:58:00,76.1,65.6,29.87,SE,134,0.0,0.0,70,0.00,,,0.56,Wunderground v.1.15,2013-06-23 22:58:00,
2013-06-23 18:03:00,76.0,65.9,29.87,South,172,0.0,0.0,71,0.00,,,0.56,Wunderground v.1.15,2013-06-23 23:03:00,
2013-06-23 18:09:00,75.8,66.1,29.87,SSW,199,0.0,0.0,72,0.00,,,0.56,Wunderground v.1.15,2013-06-23 23:09:00,
2013-06-23 18:14:00,75.6,65.9,29.87,SE,136,0.0,0.0,72,0.00,,,0.56,Wunderground v.1.15,2013-06-23 23:14:00,
2013-06-23 18:19:00,75.6,65.9,29.87,ESE,119,0.0,0.0,72,0.00,,,0.56,Wunderground v.1.15,2013-06-23 23:19:00,
2013-06-23 18:24:00,75.4,66.1,29.87,SE,134,0.0,0.0,73,0.00,,,0.56,Wunderground v.1.15,2013-06-23 23:24:00,
2013-06-23 18:29:00,75.4,66.1,29.88,SSE,167,0.0,0.0,73,0.00,,,0.56,Wunderground v.1.15,2013-06-23 23:29:00,
2013-06-23 18:34:00,75.3,66.0,29.88,SE,134,0.0,0.0,73,0.00,,,0.56,Wunderground v.1.15,2013-06-23 23:34:00,
2013-06-23 18:40:00,75.3,66.4,29.88,SSE,167,0.0,0.0,74,0.00,,,0.56,Wunderground v.1.15,2013-06-23 23:40:00,
2013-06-23 18:46:00,75.1,66.2,29.89,SE,140,0.0,3.0,74,0.00,,,0.56,Wunderground v.1.15,2013-06-23 23:46:00,
2013-06-23 18:52:00,75.1,66.2,29.89,ESE,110,0.0,0.0,74,0.00,,,0.56,Wunderground v.1.15,2013-06-23 23:52:00,
2013-06-23 18:57:00,75.1,66.2,29.89,SE,138,1.0,5.0,74,0.00,,,0.56,Wunderground v.1.15,2013-06-23 23:57:00,
2013-06-23 19:02:00,75.1,66.2,29.89,South,189,0.0,0.0,74,0.00,,,0.56,Wunderground v.1.15,2013-06-24 00:02:00,
2013-06-23 19:08:00,74.9,66.1,29.89,SE,124,0.0,1.0,74,0.00,,,0.56,Wunderground v.1.15,2013-06-24 00:08:00,
2013-06-23 19:14:00,74.9,66.1,29.89,East,97,0.0,3.0,74,0.00,,,0.56,Wunderground v.1.15,2013-06-24 00:14:00,
2013-06-23 19:19:00,74.9,66.1,29.89,South,182,0.0,3.0,74,0.00,,,0.56,Wunderground v.1.15,2013-06-24 00:19:00,
2013-06-23 19:25:00,74.9,66.4,29.89,SE,136,0.0,0.0,75,0.00,,,0.56,Wunderground v.1.15,2013-06-24 00:25:00,
2013-06-23 19:30:00,74.7,66.2,29.88,SSE,157,0.0,0.0,75,0.00,,,0.56,Wunderground v.1.15,2013-06-24 00:30:00,
2013-06-23 19:35:00,74.7,66.2,29.88,SSE,154,0.0,0.0,75,0.00,,,0.56,Wunderground v.1.15,2013-06-24 00:35:00,
2013-06-23 19:40:00,74.6,66.1,29.88,SE,143,0.0,0.0,75,0.00,,,0.56,Wunderground v.1.15,2013-06-24 00:40:00,
2013-06-23 19:46:00,74.6,66.1,29.88,SE,141,0.0,0.0,75,0.00,,,0.56,Wunderground v.1.15,2013-06-24 00:46:00,
2013-06-23 19:52:00,74.4,66.3,29.88,SSW,205,0.0,0.0,76,0.00,,,0.56,Wunderground v.1.15,2013-06-24 00:52:00,
2013-06-23 19:58:00,74.2,66.1,29.88,South,188,0.0,0.0,76,0.00,,,0.56,Wunderground v.1.15,2013-06-24 00:58:00,
2013-06-23 20:03:00,74.2,66.1,29.88,ESE,112,0.0,0.0,76,0.00,,,0.56,Wunderground v.1.15,2013-06-24 01:03:00,
2013-06-23 20:09:00,74.0,66.0,29.88,East,96,0.0,6.0,76,0.00,,,0.56,Wunderground v.1.15,2013-06-24 01:09:00,
2013-06-23 20:15:00,74.0,66.0,29.88,SE,130,0.0,2.0,76,0.00,,,0.56,Wunderground v.1.15,2013-06-24 01:15:00,
2013-06-23 20:20:00,73.9,66.2,29.88,ESE,119,0.0,0.0,77,0.00,,,0.56,Wunderground v.1.15,2013-06-24 01:20:00,
2013-06-23 20:25:00,73.9,66.2,29.88,ESE,103,0.0,0.0,77,0.00,,,0.56,Wunderground v.1.15,2013-06-24 01:25:00,
2013-06-23 20:31:00,73.7,66.0,29.88,SE,128,0.0,0.0,77,0.00,,,0.56,Wunderground v.1.15,2013-06-24 01:31:00,
2013-06-23 20:37:00,73.7,66.4,29.88,WSW,256,0.0,0.0,78,0.00,,,0.56,Wunderground v.1.15,2013-06-24 01:37:00,
2013-06-23 20:43:00,73.5,66.2,29.88,SE,133,0.0,0.0,78,0.00,,,0.56,Wunderground v.1.15,2013-06-24 01:43:00,
2013-06-23 20:48:00,73.3,66.0,29.88,East,90,0.0,0.0,78,0.00,,,0.56,Wunderground v.1.15,2013-06-24 01:48:00,
2013-06-23 20:54:00,73.2,65.9,29.88,East,92,0.0,0.0,78,0.00,,,0.56,Wunderground v.1.15,2013-06-24 01:54:00,
2013-06-23 20:59:00,73.0,65.7,29.88,SSE,151,0.0,0.0,78,0.00,,,0.56,Wunderground v.1.15,2013-06-24 01:59:00,
2013-06-23 21:05:00,73.0,66.1,29.88,SE,130,0.0,0.0,79,0.00,,,0.56,Wunderground v.1.15,2013-06-24 02:05:00,
2013-06-23 21:10:00,72.8,65.9,29.88,SE,138,0.0,0.0,79,0.00,,,0.56,Wunderground v.1.15,2013-06-24 02:10:00,
2013-06-23 21:16:00,72.7,66.2,29.88,SE,133,0.0,0.0,80,0.00,,,0.56,Wunderground v.1.15,2013-06-24 02:16:00,
2013-06-23 21:22:00,72.5,66.0,29.88,SE,134,0.0,0.0,80,0.00,,,0.56,Wunderground v.1.15,2013-06-24 02:22:00,
2013-06-23 21:27:00,72.3,65.8,29.88,South,172,0.0,0.0,80,0.00,,,0.56,Wunderground v.1.15,2013-06-24 02:27:00,
2013-06-23 21:33:00,72.3,66.1,29.89,ESE,110,0.0,0.0,81,0.00,,,0.56,Wunderground v.1.15,2013-06-24 02:33:00,
2013-06-23 21:38:00,72.1,65.9,29.89,ESE,112,0.0,0.0,81,0.00,,,0.56,Wunderground v.1.15,2013-06-24 02:38:00,
2013-06-23 21:43:00,72.1,65.9,29.89,SSW,213,0.0,0.0,81,0.00,,,0.56,Wunderground v.1.15,2013-06-24 02:43:00,
2013-06-23 21:49:00,72.1,66.3,29.89,SSE,151,0.0,1.0,82,0.00,,,0.56,Wunderground v.1.15,2013-06-24 02:49:00,
2013-06-23 21:54:00,72.0,66.2,29.89,SSE,155,0.0,0.0,82,0.00,,,0.56,Wunderground v.1.15,2013-06-24 02:54:00,
2013-06-23 22:00:00,72.0,66.2,29.89,SSE,152,0.0,0.0,82,0.00,,,0.56,Wunderground v.1.15,2013-06-24 03:00:00,
2013-06-23 22:05:00,72.0,66.6,29.89,ESE,112,0.0,0.0,83,0.00,,,0.56,Wunderground v.1.15,2013-06-24 03:05:00,
2013-06-23 22:11:00,71.8,66.4,29.89,South,178,0.0,0.0,83,0.00,,,0.56,Wunderground v.1.15,2013-06-24 03:11:00,
2013-06-23 22:17:00,71.8,66.4,29.89,South,185,0.0,0.0,83,0.00,,,0.56,Wunderground v.1.15,2013-06-24 03:17:00,
2013-06-23 22:22:00,71.8,66.7,29.89,East,95,0.0,0.0,84,0.00,,,0.56,Wunderground v.1.15,2013-06-24 03:22:00,
2013-06-23 22:27:00,71.8,66.7,29.89,SSE,151,0.0,0.0,84,0.00,,,0.56,Wunderground v.1.15,2013-06-24 03:27:00,
2013-06-23 22:32:00,71.6,66.5,29.89,South,178,0.0,0.0,84,0.00,,,0.56,Wunderground v.1.15,2013-06-24 03:32:00,
2013-06-23 22:38:00,71.6,66.5,29.89,SSW,208,0.0,0.0,84,0.00,,,0.56,Wunderground v.1.15,2013-06-24 03:38:00,
2013-06-23 22:44:00,71.6,66.5,29.89,SW,224,0.0,0.0,84,0.00,,,0.56,Wunderground v.1.15,2013-06-24 03:44:00,
2013-06-23 22:49:00,71.6,66.5,29.89,SSW,212,0.0,0.0,84,0.00,,,0.56,Wunderground v.1.15,2013-06-24 03:49:00,
2013-06-23 22:54:00,71.6,66.8,29.89,SE,127,0.0,0.0,85,0.00,,,0.56,Wunderground v.1.15,2013-06-24 03:54:00,
2013-06-23 23:00:00,71.5,66.8,29.90,ESE,119,0.0,1.0,85,0.00,,,0.56,Wunderground v.1.15,2013-06-24 04:00:00,
2013-06-23 23:01:00,71.5,66.8,29.90,ESE,119,0.0,1.0,85,0.00,,,0.56,Wunderground v.1.15,2013-06-24 04:01:00,
2013-06-23 23:02:00,71.5,66.8,29.90,ESE,119,0.0,1.0,85,0.00,,,0.56,Wunderground v.1.15,2013-06-24 04:02:00,
2013-06-23 23:03:00,71.5,66.8,29.90,ESE,119,0.0,1.0,85,0.00,,,0.56,Wunderground v.1.15,2013-06-24 04:03:00,
2013-06-23 23:07:00,71.5,66.8,29.90,ESE,117,0.0,2.0,85,0.00,,,0.56,Wunderground v.1.15,2013-06-24 04:07:00,
2013-06-23 23:10:00,71.3,66.6,29.90,ESE,117,0.0,0.0,85,0.00,,,0.56,Wunderground v.1.15,2013-06-24 04:10:00,
2013-06-23 23:15:00,71.3,66.6,29.90,ESE,121,0.0,0.0,85,0.00,,,0.56,Wunderground v.1.15,2013-06-24 04:15:00,
2013-06-23 23:20:00,71.3,66.6,29.90,ESE,121,0.0,0.0,85,0.00,,,0.56,Wunderground v.1.15,2013-06-24 04:20:00,
2013-06-23 23:25:00,71.1,66.4,29.90,SE,127,0.0,0.0,85,0.00,,,0.56,Wunderground v.1.15,2013-06-24 04:25:00,
2013-06-23 23:31:00,71.1,66.4,29.90,SE,145,0.0,0.0,85,0.00,,,0.56,Wunderground v.1.15,2013-06-24 04:31:00,
2013-06-23 23:37:00,71.1,66.4,29.90,SE,143,0.0,0.0,85,0.00,,,0.56,Wunderground v.1.15,2013-06-24 04:37:00,
2013-06-23 23:43:00,70.9,66.2,29.90,SE,144,0.0,0.0,85,0.00,,,0.56,Wunderground v.1.15,2013-06-24 04:43:00,
2013-06-23 23:48:00,70.9,66.2,29.90,SE,144,0.0,0.0,85,0.00,,,0.56,Wunderground v.1.15,2013-06-24 04:48:00,
2013-06-23 23:54:00,70.8,66.1,29.90,SE,131,0.0,0.0,85,0.00,,,0.56,Wunderground v.1.15,2013-06-24 04:54:00,